sensor_id;sensor_type;location;lat;lon;timestamp;pressure;altitude;pressure_sealevel;temperature;humidity
62864;BME280;48954;59.950;11.014;2024-01-15T00:00:31;97149.36;;;-6.74;89.76
62864;BME280;48954;59.950;11.014;2024-01-15T00:03:18;97151.48;;;-6.77;89.78
62864;BME280;48954;59.950;11.014;2024-01-15T00:05:46;97156.89;;;-6.79;89.86
62864;BME280;48954;59.950;11.014;2024-01-15T00:08:27;97165.67;;;-6.80;89.82
62864;BME280;48954;59.950;11.014;2024-01-15T00:11:08;97162.89;;;-6.84;89.67
62864;BME280;48954;59.950;11.014;2024-01-15T00:13:43;97162.18;;;-6.86;89.67
62864;BME280;48954;59.950;11.014;2024-01-15T00:16:44;97166.20;;;-6.89;89.86
62864;BME280;48954;59.950;11.014;2024-01-15T00:19:27;97166.71;;;-6.91;89.79
62864;BME280;48954;59.950;11.014;2024-01-15T00:21:55;97164.34;;;-6.94;89.74
62864;BME280;48954;59.950;11.014;2024-01-15T00:24:25;97167.28;;;-6.96;89.59
62864;BME280;48954;59.950;11.014;2024-01-15T00:27:05;97169.97;;;-6.99;89.68
62864;BME280;48954;59.950;11.014;2024-01-15T00:29:46;97168.67;;;-7.02;89.68
62864;BME280;48954;59.950;11.014;2024-01-15T00:32:21;97170.69;;;-7.04;89.52
62864;BME280;48954;59.950;11.014;2024-01-15T00:34:52;97178.69;;;-7.06;89.70
62864;BME280;48954;59.950;11.014;2024-01-15T00:37:25;97178.42;;;-7.09;89.51
62864;BME280;48954;59.950;11.014;2024-01-15T00:40:00;97176.17;;;-7.12;89.38
62864;BME280;48954;59.950;11.014;2024-01-15T00:42:41;97177.98;;;-7.14;89.52
62864;BME280;48954;59.950;11.014;2024-01-15T00:45:40;97188.06;;;-7.17;89.54
62864;BME280;48954;59.950;11.014;2024-01-15T00:48:33;97189.05;;;-7.21;89.59
62864;BME280;48954;59.950;11.014;2024-01-15T02:04:48;97238.30;;;-7.96;88.40
62864;BME280;48954;59.950;11.014;2024-01-15T02:08:10;97243.15;;;-8.00;88.25
62864;BME280;48954;59.950;11.014;2024-01-15T02:11:30;97243.89;;;-8.05;88.08
62864;BME280;48954;59.950;11.014;2024-01-15T02:59:28;97273.06;;;-8.87;86.62
62864;BME280;48954;59.950;11.014;2024-01-15T03:03:12;97280.04;;;-8.96;86.59
62864;BME280;48954;59.950;11.014;2024-01-15T03:06:32;97284.59;;;-9.03;86.43
62864;BME280;48954;59.950;11.014;2024-01-15T05:09:09;97407.77;;;-10.74;84.24
62864;BME280;48954;59.950;11.014;2024-01-15T05:11:58;97405.98;;;-10.80;84.11
62864;BME280;48954;59.950;11.014;2024-01-15T05:14:43;97403.27;;;-10.86;84.19
62864;BME280;48954;59.950;11.014;2024-01-15T05:17:45;97401.36;;;-10.92;84.03
62864;BME280;48954;59.950;11.014;2024-01-15T05:20:47;97400.13;;;-10.98;83.75
62864;BME280;48954;59.950;11.014;2024-01-15T05:23:43;97411.44;;;-10.99;83.92
62864;BME280;48954;59.950;11.014;2024-01-15T05:26:48;97417.98;;;-11.01;83.97
62864;BME280;48954;59.950;11.014;2024-01-15T05:35:02;97413.91;;;-11.09;83.99
62864;BME280;48954;59.950;11.014;2024-01-15T05:37:44;97415.30;;;-11.11;83.97
62864;BME280;48954;59.950;11.014;2024-01-15T05:40:54;97414.99;;;-11.13;83.89
62864;BME280;48954;59.950;11.014;2024-01-15T05:44:21;97411.31;;;-11.16;83.67
62864;BME280;48954;59.950;11.014;2024-01-15T05:47:44;97406.71;;;-11.22;83.52
62864;BME280;48954;59.950;11.014;2024-01-15T05:50:54;97413.81;;;-11.28;83.43
62864;BME280;48954;59.950;11.014;2024-01-15T05:53:35;97414.45;;;-11.34;83.48
62864;BME280;48954;59.950;11.014;2024-01-15T05:56:01;97415.58;;;-11.37;83.39
62864;BME280;48954;59.950;11.014;2024-01-15T05:58:32;97415.40;;;-11.42;83.26
62864;BME280;48954;59.950;11.014;2024-01-15T06:00:58;97413.10;;;-11.47;83.33
62864;BME280;48954;59.950;11.014;2024-01-15T06:03:30;97411.75;;;-11.53;82.91
62864;BME280;48954;59.950;11.014;2024-01-15T06:05:58;97413.52;;;-11.64;82.78
62864;BME280;48954;59.950;11.014;2024-01-15T06:08:33;97419.34;;;-11.74;82.57
62864;BME280;48954;59.950;11.014;2024-01-15T06:11:06;97422.92;;;-11.79;82.33
62864;BME280;48954;59.950;11.014;2024-01-15T06:13:33;97422.28;;;-11.83;82.61
62864;BME280;48954;59.950;11.014;2024-01-15T06:16:00;97423.98;;;-11.87;82.83
62864;BME280;48954;59.950;11.014;2024-01-15T06:18:30;97426.27;;;-11.92;82.92
62864;BME280;48954;59.950;11.014;2024-01-15T06:21:29;97429.98;;;-11.93;83.07
62864;BME280;48954;59.950;11.014;2024-01-15T06:24:07;97435.39;;;-11.93;83.08
62864;BME280;48954;59.950;11.014;2024-01-15T06:26:41;97441.60;;;-11.93;83.23
62864;BME280;48954;59.950;11.014;2024-01-15T06:29:08;97439.63;;;-11.93;83.04
62864;BME280;48954;59.950;11.014;2024-01-15T06:31:33;97444.57;;;-11.93;83.15
62864;BME280;48954;59.950;11.014;2024-01-15T06:33:59;97450.21;;;-11.95;83.14
62864;BME280;48954;59.950;11.014;2024-01-15T06:36:27;97459.55;;;-11.97;83.23
62864;BME280;48954;59.950;11.014;2024-01-15T06:38:53;97466.49;;;-11.98;83.12
62864;BME280;48954;59.950;11.014;2024-01-15T06:41:19;97474.50;;;-12.01;82.83
62864;BME280;48954;59.950;11.014;2024-01-15T06:43:47;97480.81;;;-12.03;83.30
62864;BME280;48954;59.950;11.014;2024-01-15T06:46:25;97486.98;;;-12.07;82.81
62864;BME280;48954;59.950;11.014;2024-01-15T06:48:54;97486.77;;;-12.12;82.36
62864;BME280;48954;59.950;11.014;2024-01-15T06:51:20;97490.06;;;-12.17;82.48
62864;BME280;48954;59.950;11.014;2024-01-15T06:53:47;97495.65;;;-12.25;82.07
62864;BME280;48954;59.950;11.014;2024-01-15T06:56:17;97506.67;;;-12.33;82.06
62864;BME280;48954;59.950;11.014;2024-01-15T06:58:44;97509.70;;;-12.39;82.09
62864;BME280;48954;59.950;11.014;2024-01-15T07:01:13;97508.16;;;-12.43;81.67
62864;BME280;48954;59.950;11.014;2024-01-15T07:03:40;97513.05;;;-12.48;81.85
62864;BME280;48954;59.950;11.014;2024-01-15T07:06:12;97521.15;;;-12.53;82.18
62864;BME280;48954;59.950;11.014;2024-01-15T07:08:40;97520.73;;;-12.55;81.94
62864;BME280;48954;59.950;11.014;2024-01-15T07:11:06;97524.96;;;-12.58;82.20
62864;BME280;48954;59.950;11.014;2024-01-15T07:13:35;97530.69;;;-12.63;82.11
62864;BME280;48954;59.950;11.014;2024-01-15T07:16:04;97530.24;;;-12.69;82.03
62864;BME280;48954;59.950;11.014;2024-01-15T07:18:30;97531.89;;;-12.75;82.04
62864;BME280;48954;59.950;11.014;2024-01-15T07:21:01;97536.13;;;-12.77;81.98
62864;BME280;48954;59.950;11.014;2024-01-15T07:23:37;97542.46;;;-12.81;81.77
62864;BME280;48954;59.950;11.014;2024-01-15T07:26:04;97541.62;;;-12.84;81.97
62864;BME280;48954;59.950;11.014;2024-01-15T07:28:32;97544.23;;;-12.87;81.83
62864;BME280;48954;59.950;11.014;2024-01-15T07:31:09;97543.20;;;-12.91;81.73
62864;BME280;48954;59.950;11.014;2024-01-15T07:33:50;97547.58;;;-12.95;81.88
62864;BME280;48954;59.950;11.014;2024-01-15T07:36:21;97551.92;;;-12.98;82.11
62864;BME280;48954;59.950;11.014;2024-01-15T07:38:47;97556.79;;;-13.02;81.74
62864;BME280;48954;59.950;11.014;2024-01-15T07:41:14;97560.19;;;-13.08;81.58
62864;BME280;48954;59.950;11.014;2024-01-15T07:43:40;97567.14;;;-13.15;81.41
62864;BME280;48954;59.950;11.014;2024-01-15T07:46:08;97568.54;;;-13.21;81.06
62864;BME280;48954;59.950;11.014;2024-01-15T07:48:34;97572.23;;;-13.27;81.03
62864;BME280;48954;59.950;11.014;2024-01-15T07:51:01;97576.33;;;-13.35;80.83
62864;BME280;48954;59.950;11.014;2024-01-15T07:53:28;97580.20;;;-13.46;80.68
62864;BME280;48954;59.950;11.014;2024-01-15T07:55:54;97583.56;;;-13.50;80.42
62864;BME280;48954;59.950;11.014;2024-01-15T07:58:21;97592.77;;;-13.53;80.70
62864;BME280;48954;59.950;11.014;2024-01-15T08:00:48;97596.27;;;-13.58;80.71
62864;BME280;48954;59.950;11.014;2024-01-15T08:03:15;97598.84;;;-13.61;81.12
62864;BME280;48954;59.950;11.014;2024-01-15T08:05:41;97600.42;;;-13.65;81.03
62864;BME280;48954;59.950;11.014;2024-01-15T08:08:07;97605.92;;;-13.65;81.06
62864;BME280;48954;59.950;11.014;2024-01-15T08:10:34;97609.02;;;-13.66;80.98
62864;BME280;48954;59.950;11.014;2024-01-15T08:13:02;97609.33;;;-13.68;80.88
62864;BME280;48954;59.950;11.014;2024-01-15T08:15:29;97618.00;;;-13.68;81.10
62864;BME280;48954;59.950;11.014;2024-01-15T08:17:55;97616.34;;;-13.71;80.64
62864;BME280;48954;59.950;11.014;2024-01-15T08:20:21;97622.84;;;-13.71;81.02
62864;BME280;48954;59.950;11.014;2024-01-15T08:22:49;97624.00;;;-13.70;81.23
62864;BME280;48954;59.950;11.014;2024-01-15T08:25:15;97629.39;;;-13.71;80.90
62864;BME280;48954;59.950;11.014;2024-01-15T08:27:42;97637.33;;;-13.70;81.45
62864;BME280;48954;59.950;11.014;2024-01-15T08:30:09;97633.95;;;-13.70;81.25
62864;BME280;48954;59.950;11.014;2024-01-15T08:32:37;97633.35;;;-13.72;80.70
62864;BME280;48954;59.950;11.014;2024-01-15T08:35:06;97637.79;;;-13.73;80.52
62864;BME280;48954;59.950;11.014;2024-01-15T08:37:32;97638.33;;;-13.70;80.96
62864;BME280;48954;59.950;11.014;2024-01-15T08:39:59;97642.46;;;-13.70;81.19
62864;BME280;48954;59.950;11.014;2024-01-15T08:42:25;97640.60;;;-13.71;80.99
62864;BME280;48954;59.950;11.014;2024-01-15T08:44:52;97642.83;;;-13.71;80.82
62864;BME280;48954;59.950;11.014;2024-01-15T08:47:19;97646.88;;;-13.72;80.57
62864;BME280;48954;59.950;11.014;2024-01-15T08:49:48;97654.60;;;-13.72;81.07
62864;BME280;48954;59.950;11.014;2024-01-15T08:52:18;97660.56;;;-13.73;80.42
62864;BME280;48954;59.950;11.014;2024-01-15T08:54:45;97668.59;;;-13.76;80.46
62864;BME280;48954;59.950;11.014;2024-01-15T08:57:12;97671.34;;;-13.75;80.29
62864;BME280;48954;59.950;11.014;2024-01-15T08:59:38;97674.00;;;-13.72;80.88
62864;BME280;48954;59.950;11.014;2024-01-15T09:02:04;97679.01;;;-13.67;80.82
62864;BME280;48954;59.950;11.014;2024-01-15T09:04:32;97679.55;;;-13.65;80.79
62864;BME280;48954;59.950;11.014;2024-01-15T09:06:59;97680.27;;;-13.60;80.38
62864;BME280;48954;59.950;11.014;2024-01-15T09:09:26;97674.61;;;-13.54;80.74
62864;BME280;48954;59.950;11.014;2024-01-15T09:11:54;97675.21;;;-13.48;80.75
62864;BME280;48954;59.950;11.014;2024-01-15T09:14:21;97679.66;;;-13.39;80.89
62864;BME280;48954;59.950;11.014;2024-01-15T09:16:47;97682.05;;;-13.29;81.16
62864;BME280;48954;59.950;11.014;2024-01-15T09:19:13;97683.85;;;-13.14;81.30
62864;BME280;48954;59.950;11.014;2024-01-15T09:21:40;97687.83;;;-12.98;81.21
62864;BME280;48954;59.950;11.014;2024-01-15T09:24:09;97689.21;;;-12.82;81.09
62864;BME280;48954;59.950;11.014;2024-01-15T09:26:35;97692.88;;;-12.63;81.43
62864;BME280;48954;59.950;11.014;2024-01-15T09:29:04;97687.46;;;-12.46;81.39
62864;BME280;48954;59.950;11.014;2024-01-15T09:31:30;97694.45;;;-12.26;81.36
62864;BME280;48954;59.950;11.014;2024-01-15T09:33:56;97695.11;;;-12.05;81.57
62864;BME280;48954;59.950;11.014;2024-01-15T09:36:22;97694.44;;;-11.86;81.56
62864;BME280;48954;59.950;11.014;2024-01-15T09:38:50;97691.38;;;-11.67;82.03
62864;BME280;48954;59.950;11.014;2024-01-15T09:41:16;97691.73;;;-11.46;81.76
62864;BME280;48954;59.950;11.014;2024-01-15T09:43:43;97692.05;;;-11.20;82.21
62864;BME280;48954;59.950;11.014;2024-01-15T09:46:09;97687.19;;;-10.90;82.43
62864;BME280;48954;59.950;11.014;2024-01-15T09:48:37;97698.30;;;-10.44;82.22
62864;BME280;48954;59.950;11.014;2024-01-15T09:51:05;97698.16;;;-9.79;82.44
62864;BME280;48954;59.950;11.014;2024-01-15T09:53:34;97693.89;;;-9.10;82.43
62864;BME280;48954;59.950;11.014;2024-01-15T09:56:01;97687.19;;;-8.41;82.32
62864;BME280;48954;59.950;11.014;2024-01-15T09:58:28;97681.61;;;-7.67;81.96
62864;BME280;48954;59.950;11.014;2024-01-15T10:00:54;97681.89;;;-7.17;81.59
62864;BME280;48954;59.950;11.014;2024-01-15T10:03:20;97678.81;;;-6.70;80.62
62864;BME280;48954;59.950;11.014;2024-01-15T10:05:46;97685.19;;;-6.29;80.77
62864;BME280;48954;59.950;11.014;2024-01-15T10:08:13;97687.16;;;-5.74;81.02
62864;BME280;48954;59.950;11.014;2024-01-15T10:10:40;97693.52;;;-5.32;80.92
62864;BME280;48954;59.950;11.014;2024-01-15T10:13:07;97693.57;;;-5.00;80.79
62864;BME280;48954;59.950;11.014;2024-01-15T10:15:37;97698.25;;;-4.86;79.55
62864;BME280;48954;59.950;11.014;2024-01-15T10:18:06;97697.24;;;-5.03;78.71
62864;BME280;48954;59.950;11.014;2024-01-15T10:20:36;97703.55;;;-5.54;77.68
62864;BME280;48954;59.950;11.014;2024-01-15T10:23:05;97707.47;;;-6.05;76.67
62864;BME280;48954;59.950;11.014;2024-01-15T10:25:31;97706.85;;;-6.49;76.42
62864;BME280;48954;59.950;11.014;2024-01-15T10:28:02;97713.57;;;-6.93;76.11
62864;BME280;48954;59.950;11.014;2024-01-15T10:30:30;97716.21;;;-7.30;76.11
62864;BME280;48954;59.950;11.014;2024-01-15T10:32:59;97719.69;;;-7.63;76.17
62864;BME280;48954;59.950;11.014;2024-01-15T10:35:34;97719.18;;;-7.89;76.54
62864;BME280;48954;59.950;11.014;2024-01-15T10:38:02;97714.84;;;-8.15;76.49
62864;BME280;48954;59.950;11.014;2024-01-15T10:40:28;97710.50;;;-8.40;76.17
62864;BME280;48954;59.950;11.014;2024-01-15T10:42:55;97707.05;;;-8.71;75.92
62864;BME280;48954;59.950;11.014;2024-01-15T10:45:23;97706.33;;;-8.93;76.07
62864;BME280;48954;59.950;11.014;2024-01-15T10:47:54;97708.27;;;-9.11;76.67
62864;BME280;48954;59.950;11.014;2024-01-15T10:50:21;97716.10;;;-9.26;76.62
62864;BME280;48954;59.950;11.014;2024-01-15T10:52:47;97720.98;;;-9.38;76.87
62864;BME280;48954;59.950;11.014;2024-01-15T10:55:14;97721.19;;;-9.49;76.72
62864;BME280;48954;59.950;11.014;2024-01-15T10:57:40;97724.95;;;-9.59;76.81
62864;BME280;48954;59.950;11.014;2024-01-15T11:00:07;97725.27;;;-9.74;76.78
62864;BME280;48954;59.950;11.014;2024-01-15T11:02:36;97721.53;;;-9.86;76.81
62864;BME280;48954;59.950;11.014;2024-01-15T11:05:03;97726.02;;;-9.88;77.66
62864;BME280;48954;59.950;11.014;2024-01-15T11:07:32;97725.42;;;-9.87;77.77
62864;BME280;48954;59.950;11.014;2024-01-15T11:10:07;97730.66;;;-9.91;77.53
62864;BME280;48954;59.950;11.014;2024-01-15T11:12:34;97732.48;;;-9.93;77.59
62864;BME280;48954;59.950;11.014;2024-01-15T11:15:02;97734.94;;;-9.97;77.52
62864;BME280;48954;59.950;11.014;2024-01-15T11:17:58;97734.30;;;-9.97;77.76
62864;BME280;48954;59.950;11.014;2024-01-15T11:20:30;97734.23;;;-9.93;78.13
62864;BME280;48954;59.950;11.014;2024-01-15T11:23:41;97733.13;;;-9.86;78.29
62864;BME280;48954;59.950;11.014;2024-01-15T11:26:29;97735.22;;;-8.96;78.47
62864;BME280;48954;59.950;11.014;2024-01-15T11:28:56;97731.43;;;-8.39;79.26
62864;BME280;48954;59.950;11.014;2024-01-15T11:34:05;97723.34;;;-7.01;78.18
62864;BME280;48954;59.950;11.014;2024-01-15T11:39:39;97722.80;;;-6.13;77.40
62864;BME280;48954;59.950;11.014;2024-01-15T11:42:06;97724.55;;;-6.60;76.58
62864;BME280;48954;59.950;11.014;2024-01-15T11:44:32;97729.90;;;-6.94;75.92
62864;BME280;48954;59.950;11.014;2024-01-15T11:47:02;97733.33;;;-7.22;75.81
62864;BME280;48954;59.950;11.014;2024-01-15T11:50:04;97735.09;;;-7.45;75.69
62864;BME280;48954;59.950;11.014;2024-01-15T11:52:36;97730.36;;;-7.73;75.64
62864;BME280;48954;59.950;11.014;2024-01-15T11:55:22;97730.02;;;-7.98;75.51
62864;BME280;48954;59.950;11.014;2024-01-15T11:57:54;97737.06;;;-8.22;75.56
62864;BME280;48954;59.950;11.014;2024-01-15T12:00:22;97729.21;;;-8.44;75.33
62864;BME280;48954;59.950;11.014;2024-01-15T12:02:51;97723.39;;;-8.70;75.21
62864;BME280;48954;59.950;11.014;2024-01-15T12:05:20;97720.91;;;-8.91;75.33
62864;BME280;48954;59.950;11.014;2024-01-15T12:07:49;97720.89;;;-9.06;75.63
62864;BME280;48954;59.950;11.014;2024-01-15T12:10:18;97723.30;;;-9.18;75.73
62864;BME280;48954;59.950;11.014;2024-01-15T12:12:59;97721.19;;;-9.30;75.55
62864;BME280;48954;59.950;11.014;2024-01-15T12:15:29;97720.58;;;-9.46;75.61
62864;BME280;48954;59.950;11.014;2024-01-15T12:18:01;97725.05;;;-9.66;75.70
62864;BME280;48954;59.950;11.014;2024-01-15T12:20:42;97724.21;;;-9.82;75.75
62864;BME280;48954;59.950;11.014;2024-01-15T12:23:12;97723.83;;;-9.96;75.92
62864;BME280;48954;59.950;11.014;2024-01-15T12:25:39;97722.55;;;-10.05;75.87
62864;BME280;48954;59.950;11.014;2024-01-15T12:28:20;97725.87;;;-10.15;75.99
62864;BME280;48954;59.950;11.014;2024-01-15T12:30:47;97723.96;;;-10.23;76.09
62864;BME280;48954;59.950;11.014;2024-01-15T12:33:13;97718.31;;;-10.28;76.19
62864;BME280;48954;59.950;11.014;2024-01-15T12:35:42;97717.52;;;-10.30;76.26
62864;BME280;48954;59.950;11.014;2024-01-15T12:38:12;97719.18;;;-10.32;76.60
62864;BME280;48954;59.950;11.014;2024-01-15T12:40:38;97719.02;;;-10.32;76.51
62864;BME280;48954;59.950;11.014;2024-01-15T12:43:06;97719.97;;;-10.31;77.00
62864;BME280;48954;59.950;11.014;2024-01-15T12:45:33;97720.13;;;-10.29;76.89
62864;BME280;48954;59.950;11.014;2024-01-15T12:48:00;97724.75;;;-10.29;76.85
62864;BME280;48954;59.950;11.014;2024-01-15T12:50:27;97724.38;;;-10.27;77.05
62864;BME280;48954;59.950;11.014;2024-01-15T12:52:53;97718.32;;;-10.30;76.96
62864;BME280;48954;59.950;11.014;2024-01-15T12:55:20;97730.67;;;-10.25;76.83
62864;BME280;48954;59.950;11.014;2024-01-15T12:57:46;97727.39;;;-10.26;76.87
62864;BME280;48954;59.950;11.014;2024-01-15T13:00:13;97725.86;;;-10.29;76.46
62864;BME280;48954;59.950;11.014;2024-01-15T13:02:45;97731.70;;;-10.36;76.04
62864;BME280;48954;59.950;11.014;2024-01-15T13:05:12;97733.70;;;-10.44;76.25
62864;BME280;48954;59.950;11.014;2024-01-15T13:07:42;97740.45;;;-10.46;76.27
62864;BME280;48954;59.950;11.014;2024-01-15T13:10:09;97742.27;;;-10.47;76.54
62864;BME280;48954;59.950;11.014;2024-01-15T13:12:37;97745.45;;;-10.47;76.47
62864;BME280;48954;59.950;11.014;2024-01-15T13:15:04;97751.14;;;-10.48;76.37
62864;BME280;48954;59.950;11.014;2024-01-15T13:17:33;97752.16;;;-10.51;76.15
62864;BME280;48954;59.950;11.014;2024-01-15T13:19:59;97752.08;;;-10.54;76.20
62864;BME280;48954;59.950;11.014;2024-01-15T13:22:26;97756.81;;;-10.53;76.46
62864;BME280;48954;59.950;11.014;2024-01-15T13:24:54;97758.46;;;-10.55;76.46
62864;BME280;48954;59.950;11.014;2024-01-15T13:27:23;97760.64;;;-10.56;76.37
62864;BME280;48954;59.950;11.014;2024-01-15T13:29:51;97766.17;;;-10.58;76.38
62864;BME280;48954;59.950;11.014;2024-01-15T13:32:24;97758.16;;;-10.64;76.13
62864;BME280;48954;59.950;11.014;2024-01-15T13:34:50;97756.02;;;-10.67;76.21
62864;BME280;48954;59.950;11.014;2024-01-15T13:37:18;97759.02;;;-10.66;76.89
62864;BME280;48954;59.950;11.014;2024-01-15T13:39:46;97764.22;;;-10.64;76.87
62864;BME280;48954;59.950;11.014;2024-01-15T13:42:13;97765.85;;;-10.60;76.90
62864;BME280;48954;59.950;11.014;2024-01-15T14:44:10;97840.31;;;-12.42;75.12
62864;BME280;48954;59.950;11.014;2024-01-15T14:46:36;97842.73;;;-12.55;74.92
62864;BME280;48954;59.950;11.014;2024-01-15T14:49:07;97843.64;;;-12.65;75.46
62864;BME280;48954;59.950;11.014;2024-01-15T14:51:34;97847.77;;;-12.75;75.19
62864;BME280;48954;59.950;11.014;2024-01-15T14:54:00;97843.53;;;-12.83;75.22
62864;BME280;48954;59.950;11.014;2024-01-15T14:56:27;97845.43;;;-12.91;75.21
62864;BME280;48954;59.950;11.014;2024-01-15T14:58:54;97853.50;;;-13.03;75.17
62864;BME280;48954;59.950;11.014;2024-01-15T15:01:22;97860.04;;;-13.15;75.31
62864;BME280;48954;59.950;11.014;2024-01-15T15:03:49;97865.88;;;-13.22;75.55
62864;BME280;48954;59.950;11.014;2024-01-15T15:06:15;97871.20;;;-13.30;75.63
62864;BME280;48954;59.950;11.014;2024-01-15T15:08:41;97878.46;;;-13.34;76.00
62864;BME280;48954;59.950;11.014;2024-01-15T15:11:22;97880.77;;;-13.39;76.01
62864;BME280;48954;59.950;11.014;2024-01-15T15:13:51;97879.13;;;-13.43;75.86
62864;BME280;48954;59.950;11.014;2024-01-15T15:16:26;97878.53;;;-13.50;76.25
62864;BME280;48954;59.950;11.014;2024-01-15T15:18:53;97883.35;;;-13.56;76.06
62864;BME280;48954;59.950;11.014;2024-01-15T15:21:21;97882.95;;;-13.64;75.73
62864;BME280;48954;59.950;11.014;2024-01-15T15:23:47;97889.66;;;-13.73;75.96
62864;BME280;48954;59.950;11.014;2024-01-15T15:26:14;97891.45;;;-13.77;76.28
62864;BME280;48954;59.950;11.014;2024-01-15T15:28:43;97897.47;;;-13.77;76.50
62864;BME280;48954;59.950;11.014;2024-01-15T15:31:09;97894.96;;;-13.79;76.70
62864;BME280;48954;59.950;11.014;2024-01-15T15:33:39;97899.50;;;-13.80;76.87
62864;BME280;48954;59.950;11.014;2024-01-15T15:36:06;97901.12;;;-13.81;76.76
62864;BME280;48954;59.950;11.014;2024-01-15T15:38:32;97909.59;;;-13.83;76.95
62864;BME280;48954;59.950;11.014;2024-01-15T15:41:00;97910.39;;;-13.87;76.71
62864;BME280;48954;59.950;11.014;2024-01-15T15:43:26;97903.65;;;-13.96;76.90
62864;BME280;48954;59.950;11.014;2024-01-15T15:45:52;97911.56;;;-13.96;77.02
62864;BME280;48954;59.950;11.014;2024-01-15T15:48:18;97910.02;;;-14.00;76.79
62864;BME280;48954;59.950;11.014;2024-01-15T15:50:45;97910.97;;;-14.02;76.69
62864;BME280;48954;59.950;11.014;2024-01-15T15:53:18;97916.12;;;-14.05;76.67
62864;BME280;48954;59.950;11.014;2024-01-15T15:56:04;97915.00;;;-14.09;76.56
62864;BME280;48954;59.950;11.014;2024-01-15T15:58:35;97911.03;;;-14.15;76.92
62864;BME280;48954;59.950;11.014;2024-01-15T16:01:06;97915.11;;;-14.18;76.84
62864;BME280;48954;59.950;11.014;2024-01-15T16:03:33;97919.39;;;-14.21;76.89
62864;BME280;48954;59.950;11.014;2024-01-15T16:06:01;97918.75;;;-14.25;77.21
62864;BME280;48954;59.950;11.014;2024-01-15T16:08:30;97918.83;;;-14.29;76.67
62864;BME280;48954;59.950;11.014;2024-01-15T16:10:59;97922.09;;;-14.36;77.06
62864;BME280;48954;59.950;11.014;2024-01-15T16:13:30;97926.08;;;-14.40;76.85
62864;BME280;48954;59.950;11.014;2024-01-15T16:15:58;97927.30;;;-14.45;76.87
62864;BME280;48954;59.950;11.014;2024-01-15T16:18:27;97933.77;;;-14.53;76.70
62864;BME280;48954;59.950;11.014;2024-01-15T16:20:54;97936.94;;;-14.58;77.07
62864;BME280;48954;59.950;11.014;2024-01-15T16:23:22;97946.31;;;-14.62;76.17
62864;BME280;48954;59.950;11.014;2024-01-15T16:25:49;97945.96;;;-14.68;76.57
62864;BME280;48954;59.950;11.014;2024-01-15T16:28:16;97956.73;;;-14.68;76.66
62864;BME280;48954;59.950;11.014;2024-01-15T16:30:43;97957.02;;;-14.71;76.90
62864;BME280;48954;59.950;11.014;2024-01-15T16:33:09;97967.33;;;-14.73;76.75
62864;BME280;48954;59.950;11.014;2024-01-15T16:35:36;97962.76;;;-14.74;76.78
62864;BME280;48954;59.950;11.014;2024-01-15T16:38:06;97961.44;;;-14.77;77.21
62864;BME280;48954;59.950;11.014;2024-01-15T16:40:34;97963.41;;;-14.79;76.84
62864;BME280;48954;59.950;11.014;2024-01-15T16:43:05;97963.47;;;-14.83;76.89
62864;BME280;48954;59.950;11.014;2024-01-15T16:45:32;97968.48;;;-14.87;76.87
62864;BME280;48954;59.950;11.014;2024-01-15T16:48:00;97972.38;;;-14.93;76.36
62864;BME280;48954;59.950;11.014;2024-01-15T16:50:27;97969.28;;;-14.99;76.48
62864;BME280;48954;59.950;11.014;2024-01-15T16:52:53;97976.41;;;-15.05;76.55
62864;BME280;48954;59.950;11.014;2024-01-15T16:55:20;97977.89;;;-15.13;76.20
62864;BME280;48954;59.950;11.014;2024-01-15T16:57:52;97979.81;;;-15.23;76.18
62864;BME280;48954;59.950;11.014;2024-01-15T17:00:20;97986.42;;;-15.29;76.16
62864;BME280;48954;59.950;11.014;2024-01-15T17:03:00;97989.09;;;-15.37;75.89
62864;BME280;48954;59.950;11.014;2024-01-15T17:05:29;97988.52;;;-15.44;75.92
62864;BME280;48954;59.950;11.014;2024-01-15T17:07:58;97987.04;;;-15.50;75.99
62864;BME280;48954;59.950;11.014;2024-01-15T17:10:24;97990.17;;;-15.55;76.19
62864;BME280;48954;59.950;11.014;2024-01-15T17:13:06;97992.54;;;-15.62;76.08
62864;BME280;48954;59.950;11.014;2024-01-15T17:15:36;97991.01;;;-15.67;76.14
62864;BME280;48954;59.950;11.014;2024-01-15T17:18:22;97991.04;;;-15.72;76.43
62864;BME280;48954;59.950;11.014;2024-01-15T17:21:24;97997.14;;;-15.77;76.49
62864;BME280;48954;59.950;11.014;2024-01-15T17:24:20;98007.42;;;-15.85;76.12
62864;BME280;48954;59.950;11.014;2024-01-15T17:27:00;98012.13;;;-15.92;76.19
62864;BME280;48954;59.950;11.014;2024-01-15T17:29:42;98012.70;;;-15.97;76.25
62864;BME280;48954;59.950;11.014;2024-01-15T17:32:41;98017.95;;;-16.01;76.45
62864;BME280;48954;59.950;11.014;2024-01-15T17:35:18;98016.50;;;-16.04;76.23
62864;BME280;48954;59.950;11.014;2024-01-15T17:37:59;98019.56;;;-16.09;76.36
62864;BME280;48954;59.950;11.014;2024-01-15T17:40:40;98025.52;;;-16.14;76.53
62864;BME280;48954;59.950;11.014;2024-01-15T17:43:42;98032.55;;;-16.19;76.52
62864;BME280;48954;59.950;11.014;2024-01-15T17:46:27;98036.02;;;-16.21;76.81
62864;BME280;48954;59.950;11.014;2024-01-15T17:49:33;98036.23;;;-16.31;76.42
62864;BME280;48954;59.950;11.014;2024-01-15T17:52:21;98047.08;;;-16.31;76.43
62864;BME280;48954;59.950;11.014;2024-01-15T17:55:22;98052.80;;;-16.34;76.70
62864;BME280;48954;59.950;11.014;2024-01-15T18:03:54;98058.50;;;-16.43;76.53
62864;BME280;48954;59.950;11.014;2024-01-15T18:07:22;98065.83;;;-16.46;76.46
62864;BME280;48954;59.950;11.014;2024-01-15T18:21:35;98086.59;;;-16.60;76.57
62864;BME280;48954;59.950;11.014;2024-01-15T18:25:06;98086.94;;;-16.65;76.43
62864;BME280;48954;59.950;11.014;2024-01-15T18:28:47;98093.12;;;-16.70;76.37
62864;BME280;48954;59.950;11.014;2024-01-15T18:34:39;98096.80;;;-16.81;76.30
62864;BME280;48954;59.950;11.014;2024-01-15T18:37:25;98099.61;;;-16.86;76.31
62864;BME280;48954;59.950;11.014;2024-01-15T18:40:29;98106.43;;;-16.89;76.26
62864;BME280;48954;59.950;11.014;2024-01-15T19:08:42;98141.48;;;-17.19;76.27
62864;BME280;48954;59.950;11.014;2024-01-15T19:11:27;98147.56;;;-17.21;76.20